Kyokuho Maru No.15 — JI3715 — position and weather

sailwx.info

Track history (hours):
 
Tides and Currents Weather Stations Pressure Air Temp Water Temp Dewpoint Dewpoint Depression Visibility Wind Speed Wind Dir Waves Ship Positions

Kyokuho Maru No.15

Last reported at 2015-Mar-31 16:28 UTC. Time now 2015-Mar-31 16:58 UTC.
Position N 34°31' E 135°24'.

Length 63 m; draft 3.2 m.

Type: Tanker. MMSI: 431301714.

Date/timePositionNaut miles runAvg speedWind from/ knotsBaromVisibWave heightAir tempDewpointWater temp
2015-Mar-31 16:28N 34°31' E 135°24'0 0.0
2015-Mar-31 15:32N 34°31' E 135°24'0 0.0
2015-Mar-31 14:33N 34°31' E 135°24'0 0.0
2015-Mar-31 13:33N 34°31' E 135°24'0 0.0
2015-Mar-31 12:32N 34°31' E 135°24'0 0.0
2015-Mar-31 11:33N 34°31' E 135°24'0 0.0
2015-Mar-31 10:33N 34°31' E 135°24'0 0.0
2015-Mar-31 09:32N 34°31' E 135°24'0 0.0
2015-Mar-31 08:32N 34°31' E 135°24'7 7.1
2015-Mar-31 07:33N 34°34' E 135°17'1312.0
2015-Mar-31 06:28N 34°37' E 135°01'1211.8
2015-Mar-31 05:27N 34°40' E 134°47'  
2015-Mar-25 10:27N 34°38' E 134°60'6 6.8
2015-Mar-25 09:33N 34°36' E 135°07'1110.5
2015-Mar-25 08:33N 34°39' E 135°19'4 4.4
2015-Mar-25 07:33N 34°41' E 135°24'0 0.0
2015-Mar-25 06:33N 34°41' E 135°24'0 0.0
2015-Mar-25 05:33N 34°41' E 135°24'0 0.0
2015-Mar-25 04:33N 34°41' E 135°24'0 0.0
2015-Mar-25 03:33N 34°41' E 135°24'0 0.0
2015-Mar-25 02:33N 34°41' E 135°24'0 0.0
2015-Mar-25 01:33N 34°41' E 135°24'0 0.0
2015-Mar-25 00:34N 34°41' E 135°24'0 0.3
2015-Mar-24 23:33N 34°41' E 135°23'2 2.1
2015-Mar-24 22:33N 34°40' E 135°22'0 0.0
2015-Mar-24 21:32N 34°40' E 135°22'0 0.0
2015-Mar-24 20:33N 34°40' E 135°22'0 0.1
2015-Mar-24 19:33N 34°40' E 135°22'0 0.1
2015-Mar-24 18:33N 34°40' E 135°22'0 0.0
2015-Mar-24 17:32N 34°40' E 135°22'0 0.0
2015-Mar-24 16:34N 34°40' E 135°22'0 0.1
2015-Mar-24 15:33N 34°40' E 135°22'10 9.7
2015-Mar-24 14:33N 34°35' E 135°11'10 8.7
2015-Mar-24 13:27N 34°37' E 134°60'  
Track history (hours):
 
Tides and Currents Weather Stations Pressure Air Temp Water Temp Dewpoint Dewpoint Depression Visibility Wind Speed Wind Dir Waves Ship Positions

Kyokuho Maru No.15

Last reported at 2015-Mar-31 16:28 UTC. Time now 2015-Mar-31 16:58 UTC.
Position N 34°31' E 135°24'.

Length 63 m; draft 3.2 m.

Type: Tanker. MMSI: 431301714.

Date/timePositionNaut miles runAvg speedWind from/ knotsBaromVisibWave heightAir tempDewpointWater temp
2015-Mar-31 16:28N 34°31' E 135°24'0 0.0
2015-Mar-31 15:32N 34°31' E 135°24'0 0.0
2015-Mar-31 14:33N 34°31' E 135°24'0 0.0
2015-Mar-31 13:33N 34°31' E 135°24'0 0.0
2015-Mar-31 12:32N 34°31' E 135°24'0 0.0
2015-Mar-31 11:33N 34°31' E 135°24'0 0.0
2015-Mar-31 10:33N 34°31' E 135°24'0 0.0
2015-Mar-31 09:32N 34°31' E 135°24'0 0.0
2015-Mar-31 08:32N 34°31' E 135°24'7 7.1
2015-Mar-31 07:33N 34°34' E 135°17'1312.0
2015-Mar-31 06:28N 34°37' E 135°01'1211.8
2015-Mar-31 05:27N 34°40' E 134°47'  
2015-Mar-25 10:27N 34°38' E 134°60'6 6.8
2015-Mar-25 09:33N 34°36' E 135°07'1110.5
2015-Mar-25 08:33N 34°39' E 135°19'4 4.4
2015-Mar-25 07:33N 34°41' E 135°24'0 0.0
2015-Mar-25 06:33N 34°41' E 135°24'0 0.0
2015-Mar-25 05:33N 34°41' E 135°24'0 0.0
2015-Mar-25 04:33N 34°41' E 135°24'0 0.0
2015-Mar-25 03:33N 34°41' E 135°24'0 0.0
2015-Mar-25 02:33N 34°41' E 135°24'0 0.0
2015-Mar-25 01:33N 34°41' E 135°24'0 0.0
2015-Mar-25 00:34N 34°41' E 135°24'0 0.3
2015-Mar-24 23:33N 34°41' E 135°23'2 2.1
2015-Mar-24 22:33N 34°40' E 135°22'0 0.0
2015-Mar-24 21:32N 34°40' E 135°22'0 0.0
2015-Mar-24 20:33N 34°40' E 135°22'0 0.1
2015-Mar-24 19:33N 34°40' E 135°22'0 0.1
2015-Mar-24 18:33N 34°40' E 135°22'0 0.0
2015-Mar-24 17:32N 34°40' E 135°22'0 0.0
2015-Mar-24 16:34N 34°40' E 135°22'0 0.1
2015-Mar-24 15:33N 34°40' E 135°22'10 9.7
2015-Mar-24 14:33N 34°35' E 135°11'10 8.7
2015-Mar-24 13:27N 34°37' E 134°60'  

Dump ship's entire track history